Time;durP1;ratioP1;P1;durP2;ratioP2;P2;SDS_P1;SDS_P2;PMS_P1;PMS_P2;Temp;Humidity;BMP_temperature;BMP_pressure;BME280_temperature;BME280_humidity;BME280_pressure;Samples;Min_cycle;Max_cycle;Signal;HPM_P1;HPM_P2
2022/03/04 00:01:53;;;;;;;;;;;;;;;23.03;19.84;97606.72;5013556;28;1011;-73
2022/03/04 00:04:18;;;;;;;;;;;;;;;22.93;20.19;97608.69;5013422;28;1091;-73
2022/03/04 00:06:44;;;;;;;;;;;;;;;23.28;19.32;97617.09;5028288;28;1035;-73
2022/03/04 00:09:09;;;;;;;;;;;;;;;22.98;20.18;97612.97;5033525;28;952;-73
2022/03/04 00:11:35;;;;;;;;;;;;;;;22.90;19.94;97608.81;5033375;28;1979;-73
2022/03/04 00:14:00;;;;;;;;;;;;;;;22.88;19.99;97607.25;5033499;28;941;-73
2022/03/04 00:16:26;;;;;;;;;;;;;;;22.91;20.05;97604.75;5036398;28;1056;-73
2022/03/04 00:19:06;;;;;;;;;;;;;;;22.56;20.75;97605.59;5075810;28;923;-73
2022/03/04 00:21:32;;;;;;;;;;;;;;;22.85;20.38;97601.69;5075513;28;1018;-73
2022/03/04 00:23:58;;;;;;;;;;;;;;;22.26;20.96;97607.06;5075830;28;941;-73
2022/03/04 00:26:23;;;;;;;;;;;;;;;22.54;20.77;97610.16;5075532;28;978;-73
2022/03/04 00:28:49;;;;;;;;;;;;;;;22.99;20.18;97601.16;5075749;28;927;-72
2022/03/04 00:31:14;;;;;;;;;;;;;;;22.41;20.80;97607.34;5075938;28;962;-73
2022/03/04 00:33:39;;;;;;;;;;;;;;;22.33;20.98;97606.03;5075165;28;1967;-72
2022/03/04 00:36:05;;;;;;;;;;;;;;;22.31;20.55;97609.31;5075104;28;1172;-72
2022/03/04 00:38:30;;;;;;;;;;;;;;;22.33;20.74;97601.16;5075618;28;925;-72
2022/03/04 00:40:56;;;;;;;;;;;;;;;22.23;20.85;97602.34;5075443;28;985;-73
2022/03/04 00:43:21;;;;;;;;;;;;;;;22.12;21.13;97607.56;5075504;28;974;-73
2022/03/04 00:45:47;;;;;;;;;;;;;;;22.41;20.75;97595.22;5075693;28;920;-72
2022/03/04 00:48:12;;;;;;;;;;;;;;;22.75;20.25;97602.88;5075650;28;969;-73
2022/03/04 00:50:37;;;;;;;;;;;;;;;22.74;19.97;97601.28;5075088;28;996;-72
2022/03/04 00:53:03;;;;;;;;;;;;;;;22.33;20.78;97600.38;5075506;28;1980;-73
2022/03/04 00:55:28;;;;;;;;;;;;;;;22.16;20.81;97593.28;5075635;28;901;-72
2022/03/04 00:57:54;;;;;;;;;;;;;;;21.69;21.32;97603.34;5075605;28;1011;-72
2022/03/04 01:00:19;;;;;;;;;;;;;;;22.61;20.19;97592.84;5075519;28;913;-72
2022/03/04 01:02:45;;;;;;;;;;;;;;;22.67;20.26;97596.69;5076758;28;978;-73
2022/03/04 01:05:10;;;;;;;;;;;;;;;22.63;20.35;97596.00;5078979;28;1045;-73
2022/03/04 01:07:35;;;;;;;;;;;;;;;22.40;20.63;97590.81;5078982;28;1033;-72
2022/03/04 01:10:01;;;;;;;;;;;;;;;22.16;20.78;97591.22;5078976;28;1007;-73
2022/03/04 01:12:26;;;;;;;;;;;;;;;21.27;21.82;97594.94;5043004;28;1875;-72
2022/03/04 01:14:54;;;;;;;;;;;;;;;21.83;21.16;97600.03;5078540;28;953;-73
2022/03/04 01:17:20;;;;;;;;;;;;;;;22.85;20.10;97596.81;5079072;28;990;-72
2022/03/04 01:19:45;;;;;;;;;;;;;;;21.96;21.13;97596.38;5078953;28;953;-72
2022/03/04 01:22:11;;;;;;;;;;;;;;;21.89;21.32;97593.78;5078704;28;939;-73
2022/03/04 01:24:36;;;;;;;;;;;;;;;22.51;20.63;97599.72;5078674;28;981;-72
2022/03/04 01:27:01;;;;;;;;;;;;;;;22.79;20.21;97595.81;5078799;28;941;-73
2022/03/04 01:29:27;;;;;;;;;;;;;;;22.69;20.10;97597.03;5078845;28;916;-72
2022/03/04 01:31:52;;;;;;;;;;;;;;;22.62;20.31;97595.22;5078481;28;1902;-73
2022/03/04 01:34:18;;;;;;;;;;;;;;;22.81;20.29;97607.50;5078384;28;999;-73
2022/03/04 01:36:43;;;;;;;;;;;;;;;22.79;19.98;97592.97;5078373;28;972;-73
2022/03/04 01:39:09;;;;;;;;;;;;;;;22.71;20.53;97597.34;5078278;28;919;-73
2022/03/04 01:41:34;;;;;;;;;;;;;;;23.12;19.63;97601.09;5078421;28;1028;-73
2022/03/04 01:44:00;;;;;;;;;;;;;;;22.86;19.92;97604.06;5078097;28;985;-73
2022/03/04 01:46:27;;;;;;;;;;;;;;;22.75;20.17;97603.69;5078338;28;1055;-72
2022/03/04 01:48:53;;;;;;;;;;;;;;;23.06;20.02;97609.41;5078174;28;910;-72
2022/03/04 01:51:18;;;;;;;;;;;;;;;22.63;20.07;97610.97;5078409;28;1034;-73
2022/03/04 01:53:44;;;;;;;;;;;;;;;22.66;20.25;97603.59;5077970;28;1979;-73
2022/03/04 01:56:09;;;;;;;;;;;;;;;22.53;20.77;97602.88;5078055;28;976;-72
2022/03/04 01:58:36;;;;;;;;;;;;;;;23.00;19.76;97597.09;5077659;28;886;-72
2022/03/04 02:01:01;;;;;;;;;;;;;;;23.26;19.58;97603.38;5078045;28;992;-73
2022/03/04 02:03:27;;;;;;;;;;;;;;;22.96;20.08;97602.09;5077504;28;1001;-73
2022/03/04 02:05:52;;;;;;;;;;;;;;;23.33;19.54;97591.72;5058684;28;1113;-72
2022/03/04 02:08:18;;;;;;;;;;;;;;;23.17;19.66;97603.31;5077990;28;955;-72
2022/03/04 02:10:43;;;;;;;;;;;;;;;22.83;20.20;97599.31;5077737;28;968;-72
2022/03/04 02:13:09;;;;;;;;;;;;;;;23.00;20.28;97601.94;5077994;28;1925;-72
2022/03/04 02:15:35;;;;;;;;;;;;;;;23.13;19.80;97600.59;5077607;28;955;-72
2022/03/04 02:18:00;;;;;;;;;;;;;;;23.03;20.13;97606.72;5077610;28;1102;-72
2022/03/04 02:20:27;;;;;;;;;;;;;;;23.03;19.98;97601.03;5074522;28;959;-72
2022/03/04 02:22:52;;;;;;;;;;;;;;;23.13;19.70;97599.81;5059716;28;1117;-73
2022/03/04 02:25:18;;;;;;;;;;;;;;;22.94;20.05;97603.81;5077622;28;1171;-73
2022/03/04 02:27:43;;;;;;;;;;;;;;;22.99;19.91;97597.53;5034689;28;2349;-72
2022/03/04 02:30:09;;;;;;;;;;;;;;;22.29;20.81;97605.38;5035180;28;1029;-72
2022/03/04 02:32:34;;;;;;;;;;;;;;;22.66;20.61;97597.94;5001397;28;1981;-72
2022/03/04 02:35:01;;;;;;;;;;;;;;;22.67;20.61;97605.19;5035063;28;1101;-72
2022/03/04 02:37:27;;;;;;;;;;;;;;;22.47;20.83;97605.50;5034860;28;1027;-72
2022/03/04 02:39:52;;;;;;;;;;;;;;;22.57;20.56;97598.66;5034879;28;1203;-72
2022/03/04 02:42:18;;;;;;;;;;;;;;;22.09;21.01;97602.81;5035007;28;1096;-72
2022/03/04 02:44:43;;;;;;;;;;;;;;;22.22;21.10;97606.41;5034632;28;1040;-72
2022/03/04 02:47:08;;;;;;;;;;;;;;;22.05;21.07;97596.47;5034768;28;1127;-72
2022/03/04 02:49:34;;;;;;;;;;;;;;;22.22;20.85;97609.22;5034608;28;1000;-73
2022/03/04 02:51:59;;;;;;;;;;;;;;;22.07;21.10;97616.63;5034694;28;1906;-72
2022/03/04 02:54:25;;;;;;;;;;;;;;;21.88;21.07;97606.38;5034444;28;1085;-72
2022/03/04 02:56:50;;;;;;;;;;;;;;;21.99;21.18;97615.28;5034320;28;985;-73
2022/03/04 02:59:16;;;;;;;;;;;;;;;22.48;20.65;97617.63;5065196;28;953;-73
2022/03/04 03:01:41;;;;;;;;;;;;;;;22.58;20.35;97611.56;5076836;28;969;-72
2022/03/04 03:04:06;;;;;;;;;;;;;;;22.56;20.55;97614.09;5054109;28;1331;-73
2022/03/04 03:06:33;;;;;;;;;;;;;;;22.09;21.04;97614.91;5053915;28;1046;-73
2022/03/04 03:08:58;;;;;;;;;;;;;;;21.84;20.95;97610.09;5054129;28;971;-72
2022/03/04 03:11:24;;;;;;;;;;;;;;;22.13;20.81;97603.50;5054334;28;971;-72
2022/03/04 03:13:49;;;;;;;;;;;;;;;23.14;19.71;97607.06;5054331;28;1918;-72
2022/03/04 03:16:14;;;;;;;;;;;;;;;22.32;20.73;97605.22;5054099;28;1004;-72
2022/03/04 03:18:40;;;;;;;;;;;;;;;21.67;21.69;97605.84;5053923;28;986;-72
2022/03/04 03:21:05;;;;;;;;;;;;;;;21.76;21.38;97597.44;5054003;28;1003;-73
2022/03/04 03:23:31;;;;;;;;;;;;;;;22.36;20.78;97620.06;5053928;28;1052;-72
2022/03/04 03:25:56;;;;;;;;;;;;;;;22.38;20.41;97604.63;5053102;28;1052;-72
2022/03/04 03:28:22;;;;;;;;;;;;;;;22.04;21.13;97606.22;4994186;28;1022;-72
2022/03/04 03:30:47;;;;;;;;;;;;;;;22.55;20.28;97600.38;4994604;28;1146;-72
2022/03/04 03:33:13;;;;;;;;;;;;;;;22.29;20.94;97603.31;4994226;28;1911;-73
2022/03/04 03:35:38;;;;;;;;;;;;;;;22.31;20.57;97603.66;5008784;28;1017;-72
2022/03/04 03:38:04;;;;;;;;;;;;;;;22.58;20.46;97600.22;5013832;28;1047;-72
2022/03/04 03:40:29;;;;;;;;;;;;;;;22.54;20.60;97605.25;5014160;28;1033;-72
2022/03/04 03:42:54;;;;;;;;;;;;;;;23.06;19.97;97600.13;5014137;28;1098;-72
2022/03/04 03:45:20;;;;;;;;;;;;;;;23.00;19.95;97599.09;5013922;28;1037;-73
2022/03/04 03:47:45;;;;;;;;;;;;;;;22.33;20.59;97595.50;5014018;28;987;-72
2022/03/04 03:50:11;;;;;;;;;;;;;;;22.51;20.62;97605.38;5013947;28;985;-73
2022/03/04 03:52:36;;;;;;;;;;;;;;;22.62;20.66;97605.78;5013893;28;1991;-72
2022/03/04 03:55:02;;;;;;;;;;;;;;;22.99;20.26;97603.22;5013516;28;1008;-73
2022/03/04 03:57:28;;;;;;;;;;;;;;;22.77;20.26;97601.16;5013961;28;1108;-72
2022/03/04 03:59:53;;;;;;;;;;;;;;;23.13;19.75;97599.81;5044209;28;991;-72
2022/03/04 04:02:18;;;;;;;;;;;;;;;22.88;20.03;97595.91;5055860;28;909;-72
2022/03/04 04:04:46;;;;;;;;;;;;;;;22.62;20.47;97594.44;5055657;28;924;-72
2022/03/04 04:07:12;;;;;;;;;;;;;;;23.06;19.90;97594.44;5055850;28;969;-72
2022/03/04 04:09:37;;;;;;;;;;;;;;;22.88;19.88;97583.75;5033136;28;1073;-73
2022/03/04 04:12:03;;;;;;;;;;;;;;;23.04;19.79;97585.59;5033205;28;1996;-72
2022/03/04 04:14:28;;;;;;;;;;;;;;;23.01;20.17;97586.53;5033170;28;1003;-73
2022/03/04 04:16:54;;;;;;;;;;;;;;;22.75;20.24;97581.00;5033347;28;972;-73
2022/03/04 04:19:20;;;;;;;;;;;;;;;22.84;20.03;97586.69;5033309;28;1015;-72
2022/03/04 04:21:45;;;;;;;;;;;;;;;23.02;20.21;97582.44;5033289;28;945;-73
2022/03/04 04:24:11;;;;;;;;;;;;;;;22.70;20.42;97584.41;5033334;28;1020;-72
2022/03/04 04:26:36;;;;;;;;;;;;;;;22.62;20.48;97577.41;5033174;28;1117;-72
2022/03/04 04:29:02;;;;;;;;;;;;;;;22.66;20.04;97577.31;5033248;28;1025;-72
2022/03/04 04:31:28;;;;;;;;;;;;;;;22.76;20.11;97582.56;5033217;28;1289;-72
2022/03/04 04:33:53;;;;;;;;;;;;;;;22.21;21.11;97587.03;5033058;28;1973;-73
2022/03/04 04:36:19;;;;;;;;;;;;;;;22.54;20.81;97587.47;5033170;28;1036;-73
2022/03/04 04:38:44;;;;;;;;;;;;;;;22.59;20.63;97595.38;5036096;28;941;-72
2022/03/04 04:41:10;;;;;;;;;;;;;;;22.23;21.21;97590.22;5053560;28;948;-72
2022/03/04 04:43:35;;;;;;;;;;;;;;;22.23;21.10;97591.00;5056914;28;1056;-72
2022/03/04 04:46:01;;;;;;;;;;;;;;;22.14;20.97;97593.75;5059352;28;1055;-73
2022/03/04 04:48:27;;;;;;;;;;;;;;;22.19;20.86;97583.88;5059223;28;1146;-72
2022/03/04 04:50:52;;;;;;;;;;;;;;;22.39;20.66;97592.06;5059793;28;991;-72
2022/03/04 04:53:18;;;;;;;;;;;;;;;22.58;20.75;97599.44;5059071;28;1906;-72
2022/03/04 04:55:43;;;;;;;;;;;;;;;22.64;20.39;97597.63;5056606;28;1301;-72
2022/03/04 04:58:08;;;;;;;;;;;;;;;22.24;20.96;97603.91;5056835;28;1012;-72
2022/03/04 05:00:34;;;;;;;;;;;;;;;21.92;21.16;97588.00;5056546;28;979;-72
2022/03/04 05:02:59;;;;;;;;;;;;;;;22.26;20.91;97606.28;5056398;28;982;-72
2022/03/04 05:05:25;;;;;;;;;;;;;;;22.50;20.59;97609.47;5056572;28;1017;-73
2022/03/04 05:07:50;;;;;;;;;;;;;;;22.53;20.54;97597.19;5056403;28;1235;-72
2022/03/04 05:10:16;;;;;;;;;;;;;;;21.82;21.06;97611.81;5056608;28;1061;-72
2022/03/04 05:12:41;;;;;;;;;;;;;;;22.12;21.09;97601.09;5056134;28;1973;-73
2022/03/04 05:15:07;;;;;;;;;;;;;;;22.00;21.25;97605.53;5056476;28;897;-72
2022/03/04 05:17:32;;;;;;;;;;;;;;;23.13;19.61;97606.28;5056440;28;1032;-72
2022/03/04 05:19:58;;;;;;;;;;;;;;;22.29;20.76;97611.81;5056352;28;966;-72
2022/03/04 05:22:23;;;;;;;;;;;;;;;22.04;21.13;97611.88;5056255;28;982;-72
2022/03/04 05:24:49;;;;;;;;;;;;;;;21.92;21.26;97607.84;5039362;28;1024;-72
2022/03/04 05:27:14;;;;;;;;;;;;;;;22.54;20.77;97615.81;5057674;28;980;-72
2022/03/04 05:29:40;;;;;;;;;;;;;;;22.58;20.55;97622.91;5058438;28;968;-73
2022/03/04 05:32:05;;;;;;;;;;;;;;;22.47;20.71;97610.38;5064817;28;1989;-73
2022/03/04 05:34:31;;;;;;;;;;;;;;;22.79;20.12;97627.00;5078595;28;930;-73
2022/03/04 05:36:56;;;;;;;;;;;;;;;22.80;20.07;97628.59;5078574;28;903;-73
2022/03/04 05:39:22;;;;;;;;;;;;;;;22.90;20.06;97637.19;5078267;28;988;-72
2022/03/04 05:41:47;;;;;;;;;;;;;;;22.54;20.46;97639.28;5078518;28;918;-73
2022/03/04 05:44:14;;;;;;;;;;;;;;;22.79;20.49;97644.03;5077957;28;906;-73
2022/03/04 05:46:39;;;;;;;;;;;;;;;22.74;20.52;97653.16;5078388;28;1071;-73
2022/03/04 05:49:05;;;;;;;;;;;;;;;23.23;20.00;97649.72;5078223;28;1092;-73
2022/03/04 05:51:30;;;;;;;;;;;;;;;23.03;20.15;97646.44;5097128;28;1272;-73
2022/03/04 05:53:56;;;;;;;;;;;;;;;22.98;20.33;97655.53;5118862;28;1901;-73
2022/03/04 05:56:22;;;;;;;;;;;;;;;22.81;20.29;97652.88;5119095;28;1015;-72
2022/03/04 05:58:47;;;;;;;;;;;;;;;22.82;20.23;97657.28;5118829;28;902;-73
2022/03/04 06:01:13;;;;;;;;;;;;;;;22.77;20.45;97646.53;5118212;28;970;-73
2022/03/04 06:03:39;;;;;;;;;;;;;;;23.12;19.88;97649.34;5118729;28;902;-73
2022/03/04 06:06:04;;;;;;;;;;;;;;;23.32;19.59;97663.94;5118418;28;945;-73
2022/03/04 06:08:30;;;;;;;;;;;;;;;22.48;20.83;97663.78;5118652;28;956;-73
2022/03/04 06:10:55;;;;;;;;;;;;;;;22.87;20.49;97662.38;5118234;28;926;-72
2022/03/04 06:13:21;;;;;;;;;;;;;;;22.81;20.36;97667.06;5118067;28;1982;-71
2022/03/04 06:15:46;;;;;;;;;;;;;;;23.00;20.36;97670.88;5115258;28;1128;-73
2022/03/04 06:18:12;;;;;;;;;;;;;;;23.12;20.14;97680.56;5106593;28;1195;-73
2022/03/04 06:20:37;;;;;;;;;;;;;;;22.87;20.29;97673.72;5103970;28;1106;-72
2022/03/04 06:23:02;;;;;;;;;;;;;;;22.88;20.16;97669.66;5071790;28;1252;-72
2022/03/04 06:25:28;;;;;;;;;;;;;;;22.74;20.35;97681.50;5090103;28;1603;-72
2022/03/04 06:27:54;;;;;;;;;;;;;;;22.56;20.47;97681.34;5106617;28;1200;-72
2022/03/04 06:30:19;;;;;;;;;;;;;;;22.25;21.28;97684.06;5108246;28;1224;-72
2022/03/04 06:32:45;;;;;;;;;;;;;;;22.40;21.04;97684.34;5107245;28;1914;-72
2022/03/04 06:35:10;;;;;;;;;;;;;;;22.30;20.94;97687.09;5106131;28;1220;-73
2022/03/04 06:37:36;;;;;;;;;;;;;;;23.04;20.15;97688.53;5108483;28;1192;-72
2022/03/04 06:40:04;;;;;;;;;;;;;;;22.92;20.54;97685.75;5107085;28;1232;-72
2022/03/04 06:42:29;;;;;;;;;;;;;;;22.81;20.21;97681.25;5106519;28;1275;-73
2022/03/04 06:44:55;;;;;;;;;;;;;;;22.65;20.80;97687.09;5108424;28;1192;-72
2022/03/04 06:47:21;;;;;;;;;;;;;;;23.15;19.98;97682.44;5106304;28;1523;-72
2022/03/04 06:49:46;;;;;;;;;;;;;;;22.97;20.32;97690.84;5106858;28;1263;-72
2022/03/04 06:52:12;;;;;;;;;;;;;;;22.96;20.44;97687.22;5107575;28;1915;-72
2022/03/04 06:54:39;;;;;;;;;;;;;;;23.14;20.23;97692.22;5106189;28;1294;-72
2022/03/04 06:57:04;;;;;;;;;;;;;;;22.91;20.51;97687.81;5107201;28;1369;-72
2022/03/04 06:59:30;;;;;;;;;;;;;;;22.52;21.07;97694.84;5106834;28;1224;-73
2022/03/04 07:01:55;;;;;;;;;;;;;;;22.36;21.08;97690.94;5052375;28;1218;-73
2022/03/04 07:04:21;;;;;;;;;;;;;;;22.74;20.62;97692.88;5106136;28;1157;-73
2022/03/04 07:06:46;;;;;;;;;;;;;;;22.33;20.86;97697.53;5106232;28;1305;-73
2022/03/04 07:09:12;;;;;;;;;;;;;;;22.23;21.09;97698.69;5107595;28;1204;-73
2022/03/04 07:11:37;;;;;;;;;;;;;;;22.24;21.02;97700.28;5105421;28;1228;-73
2022/03/04 07:14:04;;;;;;;;;;;;;;;22.53;20.95;97694.38;5106787;28;1967;-73
2022/03/04 07:16:30;;;;;;;;;;;;;;;22.64;20.68;97694.03;5107181;28;1287;-73
2022/03/04 07:18:55;;;;;;;;;;;;;;;22.99;20.15;97691.16;5105407;28;1260;-73
2022/03/04 07:21:20;;;;;;;;;;;;;;;22.80;20.58;97702.38;5106787;28;1255;-73
2022/03/04 07:23:46;;;;;;;;;;;;;;;22.94;20.60;97700.28;5106416;28;1267;-74
2022/03/04 07:26:12;;;;;;;;;;;;;;;23.24;20.12;97693.06;5108298;28;1334;-73
2022/03/04 07:28:37;;;;;;;;;;;;;;;23.08;20.43;97694.06;5105178;28;1215;-73
2022/03/04 07:31:03;;;;;;;;;;;;;;;22.93;20.60;97698.69;5113431;28;1295;-73
2022/03/04 07:33:28;;;;;;;;;;;;;;;22.63;20.62;97689.59;5116310;28;1973;-73
2022/03/04 07:35:54;;;;;;;;;;;;;;;23.35;20.03;97708.44;5093772;28;1085;-73
2022/03/04 07:38:19;;;;;;;;;;;;;;;23.29;19.90;97698.94;5093851;28;1052;-73
2022/03/04 07:40:45;;;;;;;;;;;;;;;22.65;20.78;97694.81;5093876;28;985;-73
2022/03/04 07:43:10;;;;;;;;;;;;;;;22.48;21.16;97691.34;5094056;28;887;-73
2022/03/04 07:45:36;;;;;;;;;;;;;;;22.75;20.51;97696.50;5083063;28;1137;-73
2022/03/04 07:48:01;;;;;;;;;;;;;;;22.00;21.70;97701.84;5084016;28;1202;-73
2022/03/04 07:50:27;;;;;;;;;;;;;;;22.41;20.99;97695.22;5081908;28;1276;-73
2022/03/04 07:52:52;;;;;;;;;;;;;;;22.79;20.63;97706.44;5083638;28;1913;-73
2022/03/04 07:55:18;;;;;;;;;;;;;;;22.59;20.96;97703.13;5083695;28;1217;-73
2022/03/04 07:57:44;;;;;;;;;;;;;;;23.04;20.53;97693.41;5082116;28;1299;-73
2022/03/04 08:00:10;;;;;;;;;;;;;;;22.58;20.74;97690.19;5079503;28;1196;-73
2022/03/04 08:02:39;;;;;;;;;;;;;;;22.85;20.61;97681.91;5082701;28;1244;-73
2022/03/04 08:05:06;;;;;;;;;;;;;;;22.97;20.81;97694.47;5083773;28;1310;-73
2022/03/04 08:07:32;;;;;;;;;;;;;;;23.12;20.30;97689.06;5099564;28;1244;-73
2022/03/04 08:09:58;;;;;;;;;;;;;;;22.58;21.02;97690.19;5105624;28;1195;-73
2022/03/04 08:12:23;;;;;;;;;;;;;;;22.14;21.39;97689.28;5106647;28;1922;-73
2022/03/04 08:14:48;;;;;;;;;;;;;;;22.49;21.18;97681.63;5061860;28;1343;-73
2022/03/04 08:17:14;;;;;;;;;;;;;;;21.98;21.75;97688.16;5075968;28;930;-73
2022/03/04 08:19:39;;;;;;;;;;;;;;;22.95;20.33;97690.50;5075791;28;976;-73
2022/03/04 08:22:05;;;;;;;;;;;;;;;23.09;20.13;97689.97;5076342;28;952;-73
2022/03/04 08:24:31;;;;;;;;;;;;;;;23.02;20.41;97690.25;5032991;28;982;-73
2022/03/04 08:26:56;;;;;;;;;;;;;;;23.26;20.31;97694.22;5058394;28;1115;-73
2022/03/04 08:29:22;;;;;;;;;;;;;;;23.17;20.44;97699.03;5063283;28;1299;-73
2022/03/04 08:31:48;;;;;;;;;;;;;;;23.20;20.06;97701.72;5062605;28;1923;-73
2022/03/04 08:34:13;;;;;;;;;;;;;;;23.29;20.19;97693.25;5061552;28;1212;-73
2022/03/04 08:36:39;;;;;;;;;;;;;;;23.11;20.45;97701.69;5063301;28;1237;-73
2022/03/04 08:39:05;;;;;;;;;;;;;;;23.22;20.13;97698.44;5061979;28;1327;-72
2022/03/04 08:41:32;;;;;;;;;;;;;;;23.07;20.35;97703.84;5062025;28;1248;-73
2022/03/04 08:43:58;;;;;;;;;;;;;;;23.12;20.28;97712.56;5063522;28;1268;-72
2022/03/04 08:46:23;;;;;;;;;;;;;;;22.45;21.17;97703.63;5061900;28;1276;-73
2022/03/04 08:48:49;;;;;;;;;;;;;;;22.59;21.13;97714.47;5054306;28;1236;-73
2022/03/04 08:51:14;;;;;;;;;;;;;;;22.58;21.24;97704.34;5052998;28;1024;-73
2022/03/04 08:53:40;;;;;;;;;;;;;;;23.07;20.64;97706.69;5052625;28;1975;-73
2022/03/04 08:56:05;;;;;;;;;;;;;;;23.29;20.31;97704.63;5084661;28;946;-73
2022/03/04 08:58:31;;;;;;;;;;;;;;;22.76;20.88;97701.69;5095568;28;959;-72
2022/03/04 09:00:56;;;;;;;;;;;;;;;22.97;20.49;97705.03;5095557;28;890;-73
2022/03/04 09:03:22;;;;;;;;;;;;;;;22.93;20.89;97701.53;5095031;28;991;-73
2022/03/04 09:05:48;;;;;;;;;;;;;;;23.28;20.41;97697.34;5095783;28;960;-73
2022/03/04 09:08:13;;;;;;;;;;;;;;;23.06;20.49;97702.28;5095619;28;1135;-73
2022/03/04 09:10:39;;;;;;;;;;;;;;;22.92;20.94;97697.13;5077380;28;953;-72
2022/03/04 09:13:04;;;;;;;;;;;;;;;23.10;20.37;97691.56;5094970;28;1902;-73
2022/03/04 09:15:30;;;;;;;;;;;;;;;22.66;21.04;97697.19;5095368;28;937;-73
2022/03/04 09:17:55;;;;;;;;;;;;;;;22.70;20.99;97694.25;5095102;28;954;-73
2022/03/04 09:20:20;;;;;;;;;;;;;;;22.29;21.27;97690.41;5095180;28;1019;-73
2022/03/04 09:22:46;;;;;;;;;;;;;;;22.34;21.35;97699.13;5095486;28;902;-73
2022/03/04 09:25:12;;;;;;;;;;;;;;;22.97;20.53;97696.53;5080578;28;923;-73
2022/03/04 09:27:37;;;;;;;;;;;;;;;23.17;20.44;97702.66;5099075;28;1097;-72
2022/03/04 09:30:03;;;;;;;;;;;;;;;22.95;20.86;97701.84;5098775;28;917;-73
2022/03/04 09:32:28;;;;;;;;;;;;;;;23.23;20.24;97700.81;5098904;28;1910;-73
2022/03/04 09:34:54;;;;;;;;;;;;;;;23.21;20.05;97697.66;5098829;28;975;-73
2022/03/04 09:37:19;;;;;;;;;;;;;;;23.20;20.18;97701.72;5098872;28;904;-73
2022/03/04 09:39:45;;;;;;;;;;;;;;;22.84;20.45;97691.66;5098781;28;993;-73
2022/03/04 09:42:12;;;;;;;;;;;;;;;22.72;20.84;97698.19;5098588;28;1019;-72
2022/03/04 09:44:39;;;;;;;;;;;;;;;22.16;21.37;97693.25;5055966;28;986;-73
2022/03/04 09:47:04;;;;;;;;;;;;;;;22.47;21.30;97684.09;5038776;28;947;-73
2022/03/04 09:49:31;;;;;;;;;;;;;;;22.63;20.90;97687.53;5055682;28;951;-73
2022/03/04 09:51:56;;;;;;;;;;;;;;;22.75;20.74;97683.09;5055487;28;2002;-73
2022/03/04 09:54:22;;;;;;;;;;;;;;;23.04;20.47;97677.16;5055824;28;991;-73
2022/03/04 09:56:47;;;;;;;;;;;;;;;22.87;20.53;97679.41;5055605;28;960;-73
2022/03/04 09:59:13;;;;;;;;;;;;;;;22.73;20.85;97677.06;5055694;28;1188;-73
2022/03/04 10:01:39;;;;;;;;;;;;;;;22.90;20.65;97674.06;5055534;28;1116;-73
2022/03/04 10:07:42;;;;;;;;;;;;;;;22.59;20.93;97658.53;5055290;28;935;-73
2022/03/04 10:10:14;;;;;;;;;;;;;;;22.99;20.69;97671.31;5055323;28;1047;-73
2022/03/04 10:12:56;;;;;;;;;;;;;;;22.41;21.20;97671.75;5038968;28;1977;-73
2022/03/04 10:15:21;;;;;;;;;;;;;;;22.28;21.55;97672.59;5053645;28;2295;-72
2022/03/04 10:18:00;;;;;;;;;;;;;;;22.28;21.20;97666.94;5098208;28;886;-73
2022/03/04 10:20:36;;;;;;;;;;;;;;;22.88;20.46;97663.97;5079759;28;976;-73
2022/03/04 10:23:11;;;;;;;;;;;;;;;22.95;20.60;97662.13;5082799;28;1204;-73
2022/03/04 10:25:37;;;;;;;;;;;;;;;22.63;21.01;97669.75;5108322;28;1288;-73
2022/03/04 10:28:09;;;;;;;;;;;;;;;23.09;20.40;97664.44;5106360;28;1291;-73
2022/03/04 10:30:34;;;;;;;;;;;;;;;22.87;20.56;97658.75;5106948;28;1443;-73
2022/03/04 10:33:06;;;;;;;;;;;;;;;23.16;20.50;97658.50;5108687;28;1910;-73
2022/03/04 10:35:33;;;;;;;;;;;;;;;23.26;20.36;97654.47;5106802;28;1192;-73
2022/03/04 10:37:58;;;;;;;;;;;;;;;23.03;20.15;97652.91;5087939;28;1244;-73
2022/03/04 10:40:35;;;;;;;;;;;;;;;22.95;20.62;97660.09;5055330;28;1233;-73
2022/03/04 10:43:01;;;;;;;;;;;;;;;22.75;20.95;97654.72;5054508;28;898;-73
2022/03/04 10:45:36;;;;;;;;;;;;;;;22.94;20.51;97646.38;5054471;28;1111;-73
2022/03/04 10:48:03;;;;;;;;;;;;;;;22.74;20.67;97641.81;5050509;28;1237;-73
2022/03/04 10:50:38;;;;;;;;;;;;;;;22.40;21.43;97639.78;5058211;28;1071;-73
2022/03/04 10:53:07;;;;;;;;;;;;;;;22.37;21.20;97635.03;5054649;28;1902;-73
2022/03/04 10:55:42;;;;;;;;;;;;;;;23.08;20.46;97640.16;5037501;28;1147;-73
2022/03/04 10:58:23;;;;;;;;;;;;;;;22.80;20.89;97633.50;5057674;28;1149;-73
2022/03/04 11:00:49;;;;;;;;;;;;;;;22.97;20.36;97631.25;5064974;28;1308;-73
2022/03/04 11:03:25;;;;;;;;;;;;;;;22.98;20.55;97625.13;5046350;28;1250;-73
2022/03/04 11:05:51;;;;;;;;;;;;;;;23.48;20.17;97628.84;5040734;28;1249;-73
2022/03/04 11:08:17;;;;;;;;;;;;;;;23.15;20.52;97625.69;5043704;28;1597;-73
2022/03/04 11:10:42;;;;;;;;;;;;;;;22.80;20.89;97617.25;5035222;28;1442;-73
2022/03/04 11:13:08;;;;;;;;;;;;;;;22.82;20.70;97617.59;4974624;28;1979;-73
2022/03/04 11:15:34;;;;;;;;;;;;;;;22.96;20.76;97612.66;4977508;28;1211;-73
2022/03/04 11:18:09;;;;;;;;;;;;;;;22.53;21.14;97615.00;4961623;28;1207;-73
2022/03/04 11:20:35;;;;;;;;;;;;;;;22.66;21.10;97617.78;4975902;28;1176;-73
2022/03/04 11:23:00;;;;;;;;;;;;;;;22.24;21.27;97615.25;4978209;28;1262;-73
2022/03/04 11:25:26;;;;;;;;;;;;;;;22.98;20.65;97610.94;4993984;28;1250;-73
2022/03/04 11:27:52;;;;;;;;;;;;;;;23.37;20.21;97603.72;4975057;28;1367;-73
2022/03/04 11:30:34;;;;;;;;;;;;;;;23.34;19.98;97598.97;4997246;28;1270;-73
2022/03/04 11:33:05;;;;;;;;;;;;;;;22.52;21.08;97606.97;4995597;28;1914;-73
2022/03/04 11:35:40;;;;;;;;;;;;;;;23.37;20.16;97598.06;5050642;28;1127;-73
2022/03/04 11:38:05;;;;;;;;;;;;;;;22.87;20.73;97594.28;5053179;28;1241;-73
2022/03/04 11:40:35;;;;;;;;;;;;;;;22.79;20.69;97598.63;5033927;28;1143;-73
2022/03/04 11:43:01;;;;;;;;;;;;;;;23.20;20.25;97598.75;5037166;28;1246;-73
2022/03/04 11:45:32;;;;;;;;;;;;;;;22.80;20.60;97594.56;5052771;28;1273;-73
2022/03/04 11:48:04;;;;;;;;;;;;;;;22.44;21.29;97594.31;5012776;28;1324;-73
2022/03/04 11:50:31;;;;;;;;;;;;;;;22.53;21.33;97608.53;5002297;28;1308;-73
2022/03/04 11:53:13;;;;;;;;;;;;;;;22.54;21.29;97605.25;5022899;28;1977;-73
2022/03/04 11:55:38;;;;;;;;;;;;;;;22.19;21.43;97604.50;5005057;28;1265;-73
2022/03/04 11:58:04;;;;;;;;;;;;;;;22.21;21.46;97616.16;5022313;28;1226;-73
2022/03/04 12:00:30;;;;;;;;;;;;;;;22.85;20.88;97630.84;5007400;28;1222;-73
2022/03/04 12:02:56;;;;;;;;;;;;;;;23.12;20.49;97620.94;5022662;28;1288;-73
2022/03/04 12:05:25;;;;;;;;;;;;;;;23.04;20.61;97630.97;4964035;28;1290;-73
2022/03/04 12:07:52;;;;;;;;;;;;;;;23.23;20.12;97618.47;4965244;28;1313;-73
2022/03/04 12:10:18;;;;;;;;;;;;;;;23.10;20.23;97623.44;4964243;28;1341;-73
2022/03/04 12:13:13;;;;;;;;;;;;;;;23.34;20.16;97627.38;4945628;28;1988;-73
2022/03/04 12:15:39;;;;;;;;;;;;;;;23.45;20.15;97623.31;4917214;29;1056;-73
2022/03/04 12:18:07;;;;;;;;;;;;;;;23.44;20.18;97619.69;4922142;29;1093;-73
2022/03/04 12:20:41;;;;;;;;;;;;;;;22.55;20.86;97618.19;4955277;29;1021;-72
2022/03/04 12:23:10;;;;;;;;;;;;;;;22.77;20.58;97618.19;4954985;29;1005;-73
2022/03/04 12:25:54;;;;;;;;;;;;;;;22.48;21.21;97620.47;4954811;29;984;-73
2022/03/04 12:28:20;;;;;;;;;;;;;;;22.56;20.83;97624.63;4955130;29;1003;-73
2022/03/04 12:31:01;;;;;;;;;;;;;;;22.61;20.99;97615.53;4955017;29;1195;-73
2022/03/04 12:33:27;;;;;;;;;;;;;;;22.91;20.41;97616.09;4954549;28;1907;-73
2022/03/04 12:35:57;;;;;;;;;;;;;;;22.83;20.66;97616.31;4972830;28;993;-73
2022/03/04 12:38:38;;;;;;;;;;;;;;;22.46;21.16;97620.94;5040606;28;957;-72
2022/03/04 12:41:03;;;;;;;;;;;;;;;22.77;20.88;97621.00;5052920;28;1033;-73
2022/03/04 12:43:29;;;;;;;;;;;;;;;22.61;20.85;97622.00;5052818;28;1011;-73
2022/03/04 12:45:55;;;;;;;;;;;;;;;23.39;20.07;97625.97;5052993;28;1013;-73
2022/03/04 12:48:20;;;;;;;;;;;;;;;23.59;19.87;97622.75;5052776;28;942;-73
2022/03/04 12:50:46;;;;;;;;;;;;;;;23.28;20.18;97625.59;5053241;28;969;-73
2022/03/04 12:53:24;;;;;;;;;;;;;;;22.97;20.66;97632.06;5114599;28;1990;-73
2022/03/04 12:55:49;;;;;;;;;;;;;;;22.79;20.77;97629.84;5079714;28;1087;-73
2022/03/04 12:58:15;;;;;;;;;;;;;;;22.76;20.82;97627.16;5116380;28;893;-73
2022/03/04 13:00:41;;;;;;;;;;;;;;;22.16;21.39;97625.25;5101632;28;920;-73